Informes METAR cercanos


LEVC - Manises, Valencia, ESPAÑA
Distance from station: NNE 72km
Actualización: 29/09/2020 02:00
Despejado
Despejado
 Viento del ONO
Viento: ONO 9 km/h
Temperatura: 17°C
Rocío: 10°C
Humedad: 64%
Barómetro: 1018 hPa
Resumen: Despejado
Visibility: Mas de 10 km
2020/09/29 00:00 LEVC 290000Z 30005KT 260V330 CAVOK 17/10 Q1018 NOSIG
LEAL - El Altet, Alicante, ESPAÑA
Distance from station: S 70km
Actualización: 29/09/2020 02:00
Despejado
Despejado
 Viento del N
Viento: N 11 km/h
Temperatura: 19°C
Rocío: 13°C
Humedad: 68%
Barómetro: 1018 hPa
Resumen: Despejado
Visibility: Mas de 10 km
2020/09/29 00:00 LEAL 290000Z 36006KT CAVOK 19/13 Q1018 NOSIG
 
LELC - San Javier, Murcia, ESPAÑA
Distance from station: SSO 188km
Actualización: 29/09/2020 02:00
Despejado
Despejado
 Viento del NNO
Viento: NNO 7 km/h
Temperatura: 17°C
Rocío: 13°C
Humedad: 77%
Barómetro: 1018 hPa
Resumen: Despejado
Visibility: Mas de 10 km
2020/09/29 00:00 LELC 290000Z AUTO 34004KT CAVOK 17/13 Q1018
LEAB - Los Llanos, Albacete, ESPAÑA
Distance from station: O 143km
Actualización: 29/09/2020 02:00
Despejado
Despejado
 Viento del SE
Viento: SE 9 km/h
Temperatura: 10°C
Sensacion frio: 9°C
Rocío: -2°C
Humedad: 43%
Barómetro: 1019 hPa
Resumen: Despejado
Visibility: Mas de 10 km
2020/09/29 00:00 LEAB 290000Z 13005KT CAVOK 10/M02 Q1019 NOSIG